JNB weather

OR Tambo International Airport
Johannesburg, Gauteng, South Africa

Public forecast

Using degrees Celsius for public forecast. Weather courtesy of forecast.io.

Current aviation weather report (METAR) for OR Tambo International Airport

Retrieved 2020/01/20 11:30 UTC (0 seconds ago):

FAOR 201130Z 06006KT 030V090 9999 BKN032 21/14 Q1023 NOSIG

Closest aviation forecast (TAF) to OR Tambo International Airport

Retrieved 2020/01/20 06:00 UTC (5 hours ago):

TAF FAOR 200400Z 2006/2112 10012KT 9999 BKN010 TX23/2013Z TN13/2103Z BECMG 2007/2009 BKN020 BECMG 2011/2013 SCT030 PROB30 TEMPO 2014/2018 FEW030TCU FM210000 07005KT 9999 BKN010 PROB40 TEMPO 2102/2106 4000 BR BKN004 BECMG 2107/2109 30010KT BKN020